Time;durP1;ratioP1;P1;durP2;ratioP2;P2;SDS_P1;SDS_P2;PMS_P1;PMS_P2;Temp;Humidity;BMP_temperature;BMP_pressure;BME280_temperature;BME280_humidity;BME280_pressure;Samples;Min_cycle;Max_cycle;Signal;HPM_P1;HPM_P2
2021/06/27 00:00:14;;;;;;;32.08;20.35;;;;;;;18.16;67.71;101575.19;6125862;23;20077;-81
2021/06/27 00:02:40;;;;;;;26.45;17.75;;;;;;;18.06;68.11;101586.22;6125951;23;20006;-81
2021/06/27 00:05:07;;;;;;;25.10;17.20;;;;;;;18.02;68.25;101575.81;6126085;23;20012;-81
2021/06/27 00:07:32;;;;;;;26.48;18.60;;;;;;;17.91;68.78;101568.81;6152541;23;20080;-81
2021/06/27 00:09:58;;;;;;;26.13;18.23;;;;;;;18.01;68.29;101580.41;6125978;23;20371;-81
2021/06/27 00:12:23;;;;;;;23.90;17.00;;;;;;;18.10;67.88;101581.31;6152254;23;20016;-81
2021/06/27 00:14:49;;;;;;;24.35;16.92;;;;;;;18.07;67.79;101578.91;6151868;23;20005;-81
2021/06/27 00:17:15;;;;;;;25.00;17.45;;;;;;;18.00;68.06;101578.72;6152081;23;20446;-81
2021/06/27 00:19:40;;;;;;;24.05;17.27;;;;;;;17.98;67.96;101582.63;6151733;23;20031;-81
2021/06/27 00:22:06;;;;;;;21.80;15.73;;;;;;;18.06;67.58;101577.19;6152683;23;20072;-81
2021/06/27 00:24:31;;;;;;;28.17;17.60;;;;;;;17.96;68.02;101577.31;6152219;23;20009;-81
2021/06/27 00:26:56;;;;;;;22.95;17.65;;;;;;;18.03;67.54;101574.78;6152242;23;20002;-81
2021/06/27 00:29:22;;;;;;;23.40;15.93;;;;;;;18.15;67.00;101576.19;6152097;23;20033;-81
2021/06/27 00:31:47;;;;;;;25.02;17.75;;;;;;;17.92;67.86;101567.78;6125888;23;20005;-81
2021/06/27 00:34:13;;;;;;;24.42;18.08;;;;;;;17.90;67.93;101580.69;6151894;23;20016;-81
2021/06/27 00:36:38;;;;;;;22.58;17.08;;;;;;;17.99;67.53;101582.44;6151936;23;20434;-81
2021/06/27 00:39:04;;;;;;;24.90;18.30;;;;;;;17.87;67.87;101581.03;6152236;23;20454;-81
2021/06/27 00:41:30;;;;;;;24.73;17.20;;;;;;;17.88;67.62;101593.63;6152616;23;20029;-81
2021/06/27 00:43:55;;;;;;;22.73;17.50;;;;;;;17.83;67.73;101582.38;6125396;23;20005;-81
2021/06/27 00:46:21;;;;;;;23.23;17.40;;;;;;;17.88;67.48;101582.75;6152222;23;20068;-81
2021/06/27 00:48:46;;;;;;;28.58;18.23;;;;;;;17.91;67.05;101586.00;6151892;23;20032;-80
2021/06/27 00:51:12;;;;;;;24.20;17.85;;;;;;;17.92;67.12;101584.97;6125471;23;20009;-81
2021/06/27 00:53:37;;;;;;;22.80;17.13;;;;;;;17.87;67.23;101583.75;6126069;23;20013;-81
2021/06/27 00:56:03;;;;;;;20.27;15.35;;;;;;;17.88;67.10;101586.31;6152295;23;20009;-81
2021/06/27 00:58:34;;;;;;;21.67;17.48;;;;;;;17.92;66.71;101584.13;6152043;23;20005;-81
2021/06/27 01:01:01;;;;;;;18.08;14.63;;;;;;;17.75;67.35;101588.59;6152258;23;20452;-81
2021/06/27 01:03:27;;;;;;;20.77;17.30;;;;;;;17.77;67.24;101588.44;6151561;23;20009;-81
2021/06/27 01:05:54;;;;;;;23.55;16.52;;;;;;;17.75;67.56;101594.03;6125548;23;20016;-81
2021/06/27 01:08:19;;;;;;;29.48;18.63;;;;;;;17.72;67.48;101591.63;6152702;23;20009;-81
2021/06/27 01:10:49;;;;;;;25.17;17.65;;;;;;;17.69;67.43;101587.38;6151957;23;20335;-81
2021/06/27 01:13:21;;;;;;;22.80;17.48;;;;;;;17.75;66.88;101585.88;6125539;23;20009;-81
2021/06/27 01:15:47;;;;;;;22.85;16.88;;;;;;;17.70;66.94;101582.78;6152175;23;20013;-81
2021/06/27 01:18:12;;;;;;;19.65;15.48;;;;;;;17.69;67.17;101578.34;6151973;23;20037;-81
2021/06/27 01:20:39;;;;;;;28.80;18.25;;;;;;;17.67;67.30;101577.69;6152111;23;20021;-81
2021/06/27 01:23:10;;;;;;;20.90;15.68;;;;;;;17.63;67.44;101584.44;6125929;23;20389;-81
2021/06/27 01:25:38;;;;;;;20.27;16.50;;;;;;;17.68;67.10;101577.50;6151880;23;20354;-81
2021/06/27 01:28:05;;;;;;;20.90;16.90;;;;;;;17.65;67.13;101579.69;6151811;23;20338;-81
2021/06/27 01:30:31;;;;;;;22.48;16.92;;;;;;;17.66;67.06;101575.94;6153532;23;20444;-81
2021/06/27 01:32:59;;;;;;;18.67;14.32;;;;;;;17.77;66.72;101580.28;6127489;23;20009;-81
2021/06/27 01:35:25;;;;;;;22.33;16.40;;;;;;;17.67;66.48;101581.25;6153815;23;20021;-81
2021/06/27 01:37:53;;;;;;;18.73;15.57;;;;;;;17.62;66.91;101580.88;6153809;23;20502;-81
2021/06/27 01:40:20;;;;;;;19.38;16.20;;;;;;;17.58;67.04;101578.66;6154448;23;20409;-81
2021/06/27 01:42:47;;;;;;;21.15;15.73;;;;;;;17.54;67.15;101571.81;6127534;23;20010;-81
2021/06/27 01:45:20;;;;;;;17.13;15.25;;;;;;;17.53;67.38;101572.81;6153735;23;20435;-81
2021/06/27 01:47:55;;;;;;;21.15;16.90;;;;;;;17.43;67.10;101567.50;6127504;23;20028;-81
2021/06/27 01:50:20;;;;;;;20.13;15.40;;;;;;;17.48;67.11;101559.72;6153840;23;20342;-81
2021/06/27 01:52:46;;;;;;;20.20;16.35;;;;;;;17.50;66.80;101570.44;6154048;23;20019;-81
2021/06/27 01:55:11;;;;;;;17.98;14.65;;;;;;;17.44;66.83;101572.75;6127455;23;20056;-81
2021/06/27 01:57:37;;;;;;;19.98;15.80;;;;;;;17.45;67.16;101562.78;6154053;23;20369;-81
2021/06/27 02:00:04;;;;;;;19.20;14.88;;;;;;;17.50;66.57;101567.72;6127112;23;20068;-81
2021/06/27 02:02:30;;;;;;;18.67;16.17;;;;;;;17.45;66.45;101565.50;6126716;23;20041;-81
2021/06/27 02:04:55;;;;;;;25.98;19.05;;;;;;;17.39;67.09;101556.09;6127783;23;20014;-81
2021/06/27 02:07:21;;;;;;;20.90;16.90;;;;;;;17.39;67.12;101555.25;6153475;23;20001;-81
2021/06/27 02:09:46;;;;;;;24.20;17.67;;;;;;;17.40;67.06;101559.66;6153196;23;20471;-81
2021/06/27 02:12:12;;;;;;;19.27;16.23;;;;;;;17.43;66.81;101543.88;6153282;23;20015;-80
2021/06/27 02:14:40;;;;;;;20.95;16.60;;;;;;;17.31;66.74;101547.88;6153545;23;20406;-81
2021/06/27 02:17:08;;;;;;;20.92;16.30;;;;;;;17.32;67.12;101544.13;6153591;23;20450;-81
2021/06/27 02:19:33;;;;;;;21.98;16.42;;;;;;;17.30;67.21;101532.59;6127216;23;20032;-81
2021/06/27 02:21:59;;;;;;;24.48;17.55;;;;;;;17.24;67.09;101541.38;6153280;23;20426;-81
2021/06/27 02:24:25;;;;;;;23.15;16.35;;;;;;;17.25;67.57;101542.25;6153501;23;20005;-81
2021/06/27 02:26:50;;;;;;;24.58;17.08;;;;;;;17.27;67.36;101537.50;6152988;23;20341;-81
2021/06/27 02:29:16;;;;;;;25.60;17.08;;;;;;;17.35;67.12;101535.66;6126758;23;20020;-81
2021/06/27 02:31:48;;;;;;;25.33;18.85;;;;;;;17.28;67.47;101528.31;6126603;23;20037;-81
2021/06/27 02:34:14;;;;;;;22.90;17.63;;;;;;;17.27;67.16;101530.19;6152846;23;20068;-81
2021/06/27 02:36:39;;;;;;;21.88;15.82;;;;;;;17.30;67.29;101527.16;6126565;23;20048;-81
2021/06/27 02:39:04;;;;;;;22.10;15.90;;;;;;;17.35;67.05;101530.22;6153089;23;20009;-81
2021/06/27 02:41:30;;;;;;;24.02;18.13;;;;;;;17.32;67.17;101533.25;6126508;23;20055;-80
2021/06/27 02:43:55;;;;;;;21.02;17.35;;;;;;;17.37;66.75;101528.22;6152701;23;20009;-81
2021/06/27 02:46:20;;;;;;;18.60;15.32;;;;;;;17.41;66.52;101523.28;6152944;23;20020;-81
2021/06/27 02:48:46;;;;;;;22.48;17.10;;;;;;;17.34;66.55;101531.25;6152834;23;20013;-81
2021/06/27 02:51:11;;;;;;;22.50;15.90;;;;;;;17.31;66.75;101525.28;6152956;23;20315;-81
2021/06/27 02:53:36;;;;;;;23.55;15.98;;;;;;;17.22;67.11;101527.94;6152860;23;20013;-81
2021/06/27 02:56:08;;;;;;;20.42;16.60;;;;;;;17.30;67.02;101523.59;6126230;23;20572;-81
2021/06/27 02:58:39;;;;;;;22.45;18.00;;;;;;;17.19;67.71;101521.97;6152956;23;20089;-81
2021/06/27 03:01:05;;;;;;;17.92;15.20;;;;;;;17.26;67.07;101523.03;6152857;23;20059;-81
2021/06/27 03:03:31;;;;;;;21.27;17.52;;;;;;;17.27;66.66;101523.91;6152607;23;20012;-81
2021/06/27 03:05:56;;;;;;;24.10;17.30;;;;;;;17.16;66.92;101520.44;6152938;23;20006;-81
2021/06/27 03:08:22;;;;;;;20.92;16.30;;;;;;;17.25;66.53;101518.63;6152922;23;20005;-81
2021/06/27 03:10:47;;;;;;;18.85;15.98;;;;;;;17.27;66.12;101524.75;6152887;23;20005;-81
2021/06/27 03:13:12;;;;;;;21.75;16.00;;;;;;;17.31;65.80;101528.00;6152822;23;20319;-81
2021/06/27 03:15:38;;;;;;;18.67;14.48;;;;;;;17.30;65.80;101524.44;6126491;23;20013;-81
2021/06/27 03:18:03;;;;;;;22.73;16.75;;;;;;;17.19;65.97;101530.13;6152599;23;20479;-80
2021/06/27 03:20:28;;;;;;;16.77;14.20;;;;;;;17.29;65.46;101528.16;6153140;23;20565;-81
2021/06/27 03:22:54;;;;;;;21.35;16.02;;;;;;;17.19;65.73;101525.53;6152433;23;20009;-81
2021/06/27 03:25:25;;;;;;;25.08;17.20;;;;;;;17.22;66.08;101522.50;6152579;23;20026;-81
2021/06/27 03:27:50;;;;;;;;;;;;;;;17.34;65.90;101517.66;6160241;23;20475;-81
2021/06/27 03:30:16;;;;;;;21.40;16.67;;;;;;;17.34;66.25;101528.53;6153095;23;19955;-81
2021/06/27 03:32:41;;;;;;;19.67;14.25;;;;;;;17.44;66.19;101531.97;6152603;23;20012;-81
2021/06/27 03:35:07;;;;;;;17.38;13.73;;;;;;;17.46;66.34;101535.41;6152556;23;20016;-81
2021/06/27 03:37:33;;;;;;;18.88;14.95;;;;;;;17.41;66.89;101529.56;6152742;23;20020;-81
2021/06/27 03:39:58;;;;;;;17.48;15.30;;;;;;;17.42;67.28;101535.91;6152765;23;20005;-81
2021/06/27 03:42:24;;;;;;;22.25;16.77;;;;;;;17.37;67.57;101538.25;6152681;23;20017;-81
2021/06/27 03:44:49;;;;;;;18.77;15.32;;;;;;;17.51;67.54;101547.66;6152478;23;20016;-81
2021/06/27 03:47:15;;;;;;;17.23;14.55;;;;;;;17.57;66.88;101541.56;6152402;23;20005;-81
2021/06/27 03:49:40;;;;;;;21.67;15.75;;;;;;;17.58;66.80;101537.84;6152445;23;20064;-81
2021/06/27 03:52:06;;;;;;;21.83;17.35;;;;;;;17.60;66.95;101535.78;6152025;23;20033;-81
2021/06/27 03:54:32;;;;;;;18.40;13.77;;;;;;;17.64;66.60;101531.75;6125509;23;20052;-81
2021/06/27 03:56:58;;;;;;;20.42;14.48;;;;;;;17.63;67.29;101532.75;6152253;23;20020;-81
2021/06/27 03:59:23;;;;;;;20.48;15.07;;;;;;;17.75;66.59;101530.59;6152555;23;20077;-81
2021/06/27 04:01:48;;;;;;;17.10;14.30;;;;;;;17.80;65.83;101528.28;6152692;23;20005;-81
2021/06/27 04:04:13;;;;;;;15.52;12.65;;;;;;;17.82;65.78;101527.09;6152739;23;20005;-81
2021/06/27 04:06:39;;;;;;;18.88;14.27;;;;;;;17.77;66.55;101524.03;6126203;23;20016;-81
2021/06/27 04:09:04;;;;;;;15.43;12.93;;;;;;;17.94;66.15;101524.94;6152667;23;20453;-81
2021/06/27 04:11:30;;;;;;;17.60;13.75;;;;;;;17.98;66.10;101530.91;6126153;23;20017;-81
2021/06/27 04:13:55;;;;;;;15.45;13.73;;;;;;;18.05;65.82;101530.06;6152586;23;20012;-81
2021/06/27 04:16:20;;;;;;;15.98;13.15;;;;;;;18.09;65.56;101533.31;6152926;23;20009;-81
2021/06/27 04:18:46;;;;;;;18.17;14.70;;;;;;;18.01;66.20;101531.44;6152364;23;20012;-81
2021/06/27 04:21:11;;;;;;;20.13;15.70;;;;;;;18.08;66.08;101532.47;6152165;23;20009;-81
2021/06/27 04:23:38;;;;;;;19.27;14.90;;;;;;;18.05;66.49;101532.78;6152408;23;20013;-81
2021/06/27 04:26:05;;;;;;;17.40;13.73;;;;;;;17.97;66.56;101529.19;6152220;23;20068;-81
2021/06/27 04:28:31;;;;;;;15.30;13.20;;;;;;;17.97;66.40;101526.47;6125663;23;20017;-81
2021/06/27 04:30:56;;;;;;;13.68;12.07;;;;;;;17.94;66.51;101530.38;6152443;23;20493;-81
2021/06/27 04:33:21;;;;;;;14.45;12.82;;;;;;;17.87;66.47;101523.88;6152376;23;20005;-81
2021/06/27 04:35:47;;;;;;;14.98;13.38;;;;;;;17.88;66.67;101523.72;6125616;23;20002;-81
2021/06/27 04:38:16;;;;;;;16.08;14.00;;;;;;;18.02;66.13;101522.22;6152269;23;20461;-81
2021/06/27 04:40:42;;;;;;;16.38;13.07;;;;;;;18.10;65.94;101515.97;6126127;23;20406;-81
2021/06/27 04:43:07;;;;;;;17.45;13.00;;;;;;;18.20;66.24;101515.81;6152155;23;20082;-81
2021/06/27 04:45:34;;;;;;;16.10;13.05;;;;;;;18.30;65.58;101520.09;6125998;23;20337;-81
2021/06/27 04:48:00;;;;;;;15.07;13.05;;;;;;;18.35;65.44;101515.00;6126037;23;20013;-81
2021/06/27 04:50:25;;;;;;;17.65;14.30;;;;;;;18.46;65.28;101518.44;6152308;23;20009;-81
2021/06/27 04:52:52;;;;;;;19.38;15.13;;;;;;;18.40;65.63;101519.09;6152274;23;20060;-80
2021/06/27 04:55:19;;;;;;;15.60;12.48;;;;;;;18.51;65.16;101513.31;6152538;23;20089;-81
2021/06/27 04:57:44;;;;;;;22.02;14.85;;;;;;;18.46;65.71;101515.72;6125638;23;20342;-81
2021/06/27 05:00:10;;;;;;;18.90;15.10;;;;;;;18.42;66.10;101517.91;6152410;23;20035;-81
2021/06/27 05:02:35;;;;;;;17.15;14.15;;;;;;;18.24;66.80;101515.31;6125807;23;20114;-81
2021/06/27 05:05:02;;;;;;;19.48;13.85;;;;;;;18.10;67.32;101527.72;6153108;23;20005;-81
2021/06/27 05:07:27;;;;;;;20.88;15.05;;;;;;;18.12;67.49;101527.53;6154102;23;20033;-81
2021/06/27 05:09:56;;;;;;;16.77;14.40;;;;;;;18.16;67.49;101518.03;6127515;23;20604;-81
2021/06/27 05:12:21;;;;;;;16.60;13.77;;;;;;;18.32;66.87;101526.22;6154221;23;20033;-81
2021/06/27 05:14:46;;;;;;;16.05;14.27;;;;;;;18.24;67.38;101518.03;6154489;23;20437;-81
2021/06/27 05:17:12;;;;;;;16.90;13.77;;;;;;;18.13;67.97;101524.66;6153939;23;20088;-81
2021/06/27 05:19:37;;;;;;;17.60;14.32;;;;;;;18.37;67.26;101528.47;6153732;23;20485;-81
2021/06/27 05:22:03;;;;;;;19.52;14.52;;;;;;;18.51;66.79;101532.38;6154105;23;20366;-81
2021/06/27 05:24:28;;;;;;;18.95;14.55;;;;;;;18.49;66.12;101532.56;6153929;23;20010;-81
2021/06/27 05:26:53;;;;;;;16.08;13.80;;;;;;;18.46;66.41;101529.34;6154273;23;20076;-81
2021/06/27 05:29:19;;;;;;;16.20;13.82;;;;;;;18.64;66.11;101532.75;6153698;23;20080;-81
2021/06/27 05:31:44;;;;;;;16.13;12.80;;;;;;;18.77;65.39;101526.81;6154102;23;20009;-81
2021/06/27 05:34:09;;;;;;;14.05;12.50;;;;;;;18.80;65.04;101534.66;6127399;23;20033;-81
2021/06/27 05:36:37;;;;;;;14.73;12.82;;;;;;;18.96;64.68;101529.19;6126893;23;20013;-81
2021/06/27 05:39:09;;;;;;;13.18;11.75;;;;;;;19.00;64.42;101537.88;6153500;23;20012;-81
2021/06/27 05:41:35;;;;;;;16.60;12.98;;;;;;;18.89;64.80;101536.38;6127449;23;20005;-81
2021/06/27 05:44:02;;;;;;;16.10;12.57;;;;;;;19.03;64.28;101538.38;6153279;23;20032;-81
2021/06/27 05:46:28;;;;;;;16.02;13.50;;;;;;;18.98;63.91;101546.25;6153999;23;20454;-81
2021/06/27 05:48:53;;;;;;;15.05;13.35;;;;;;;18.99;63.77;101544.34;6153499;23;20010;-81
2021/06/27 05:51:18;;;;;;;13.40;11.98;;;;;;;19.08;63.90;101546.06;6127099;23;20378;-81
2021/06/27 05:53:44;;;;;;;16.70;12.35;;;;;;;19.03;64.20;101542.97;6153607;23;20055;-81
2021/06/27 05:56:10;;;;;;;14.45;12.90;;;;;;;18.92;64.58;101536.03;6153496;23;20019;-81
2021/06/27 05:58:40;;;;;;;14.90;11.43;;;;;;;18.88;64.27;101542.81;6153365;23;20064;-81
2021/06/27 06:01:07;;;;;;;13.85;10.60;;;;;;;19.08;63.26;101540.59;6154165;23;20351;-81
2021/06/27 06:03:33;;;;;;;11.27;9.27;;;;;;;19.14;61.40;101530.88;6153516;23;20012;-81
2021/06/27 06:05:58;;;;;;;12.10;9.43;;;;;;;19.20;61.20;101539.22;6154377;23;20005;-81
2021/06/27 06:08:24;;;;;;;8.98;8.07;;;;;;;19.26;59.67;101534.97;6154853;23;20009;-81
2021/06/27 06:10:49;;;;;;;9.23;7.90;;;;;;;19.29;58.85;101542.78;6127120;23;20099;-81
2021/06/27 06:13:14;;;;;;;8.23;7.40;;;;;;;19.18;57.96;101541.25;6153363;23;20005;-81
2021/06/27 06:15:40;;;;;;;9.13;8.23;;;;;;;19.14;58.58;101539.91;6152959;23;20068;-81
2021/06/27 06:18:05;;;;;;;7.75;6.95;;;;;;;19.14;58.78;101545.38;6127053;23;20043;-81
2021/06/27 06:20:30;;;;;;;8.02;6.45;;;;;;;19.16;57.79;101542.44;6153650;23;20009;-81
2021/06/27 06:22:56;;;;;;;6.55;5.88;;;;;;;19.23;57.99;101541.59;6126633;23;20009;-81
2021/06/27 06:25:21;;;;;;;6.78;5.70;;;;;;;19.19;56.95;101547.56;6153730;23;20010;-81
2021/06/27 06:27:47;;;;;;;6.63;5.93;;;;;;;19.17;57.38;101558.66;6153011;23;20014;-81
2021/06/27 06:30:13;;;;;;;6.18;5.30;;;;;;;19.16;57.75;101550.63;6126895;23;20012;-81
2021/06/27 06:32:38;;;;;;;6.10;5.60;;;;;;;19.09;57.09;101558.66;6153234;23;20012;-81
2021/06/27 06:35:04;;;;;;;6.00;5.43;;;;;;;19.15;57.24;101563.41;6126640;23;20014;-81
2021/06/27 06:37:30;;;;;;;6.72;6.07;;;;;;;18.97;58.04;101560.88;6126481;23;20472;-81
2021/06/27 06:39:55;;;;;;;6.57;5.88;;;;;;;19.05;57.62;101569.06;6153318;23;20029;-81
2021/06/27 06:42:20;;;;;;;6.18;5.57;;;;;;;19.09;57.63;101561.38;6153019;23;20009;-81
2021/06/27 06:44:45;;;;;;;6.05;5.45;;;;;;;19.17;57.65;101561.38;6127028;23;20013;-81
2021/06/27 06:47:11;;;;;;;5.70;5.20;;;;;;;19.15;57.52;101565.31;6153312;23;20005;-81
2021/06/27 06:49:36;;;;;;;5.88;5.32;;;;;;;19.13;56.24;101567.34;6152862;23;20010;-81
2021/06/27 06:52:02;;;;;;;6.38;4.90;;;;;;;19.03;56.69;101559.34;6153008;23;20430;-81
2021/06/27 06:54:27;;;;;;;5.45;4.95;;;;;;;19.11;56.29;101564.78;6126724;23;20009;-81
2021/06/27 06:56:52;;;;;;;8.63;6.30;;;;;;;19.10;56.13;101576.75;6153315;23;20028;-81
2021/06/27 06:59:18;;;;;;;5.50;5.05;;;;;;;19.24;56.01;101569.72;6126758;23;20088;-81
2021/06/27 07:01:43;;;;;;;6.57;5.97;;;;;;;19.36;55.48;101570.22;6155418;23;20001;-81
2021/06/27 07:04:09;;;;;;;5.63;5.13;;;;;;;19.26;55.78;101570.41;6152829;23;20172;-81
2021/06/27 07:06:34;;;;;;;5.93;5.32;;;;;;;19.21;56.18;101570.91;6153283;23;20001;-81
2021/06/27 07:08:59;;;;;;;6.05;5.55;;;;;;;19.19;55.34;101583.88;6126566;23;20878;-81
2021/06/27 07:11:25;;;;;;;6.13;5.63;;;;;;;19.03;55.65;101572.97;6153230;23;20009;-81
2021/06/27 07:13:50;;;;;;;6.95;6.35;;;;;;;19.10;55.50;101567.69;6153098;23;20333;-81
2021/06/27 07:16:15;;;;;;;6.32;5.75;;;;;;;19.35;54.82;101571.25;6126715;23;20012;-81
2021/06/27 07:18:41;;;;;;;6.28;5.70;;;;;;;19.37;55.33;101571.91;6153125;23;20429;-81
2021/06/27 07:21:06;;;;;;;6.53;5.93;;;;;;;19.46;54.88;101576.31;6152786;23;20076;-81
2021/06/27 07:23:31;;;;;;;6.18;5.60;;;;;;;19.46;54.36;101571.72;6152816;23;20009;-81
2021/06/27 07:25:57;;;;;;;6.53;5.93;;;;;;;19.59;53.80;101570.31;6153214;23;20005;-81
2021/06/27 07:28:22;;;;;;;6.15;5.65;;;;;;;19.76;53.17;101573.91;6125959;23;20331;-81
2021/06/27 07:30:47;;;;;;;5.82;5.32;;;;;;;19.91;53.14;101580.34;6153755;23;20318;-81
2021/06/27 07:33:14;;;;;;;5.40;5.00;;;;;;;20.06;53.07;101589.47;6152836;23;20016;-81
2021/06/27 07:35:40;;;;;;;4.72;4.30;;;;;;;20.20;51.87;101580.53;6153486;23;20311;-81
2021/06/27 07:38:05;;;;;;;5.68;4.82;;;;;;;20.33;51.94;101577.22;6126704;23;20020;-81
2021/06/27 07:40:31;;;;;;;5.13;4.72;;;;;;;20.42;51.64;101586.22;6152926;23;20015;-81
2021/06/27 07:42:56;;;;;;;5.43;4.88;;;;;;;20.47;51.43;101581.06;6127248;23;20089;-81
2021/06/27 07:45:21;;;;;;;5.15;4.68;;;;;;;20.52;50.99;101578.69;6153982;23;20370;-81
2021/06/27 07:47:47;;;;;;;5.85;5.25;;;;;;;20.56;51.00;101574.53;6152891;23;20012;-81
2021/06/27 07:50:12;;;;;;;7.22;6.05;;;;;;;20.58;50.83;101583.41;6153094;23;20409;-81
2021/06/27 07:52:39;;;;;;;6.90;6.30;;;;;;;20.43;50.70;101586.03;6153065;23;20013;-81
2021/06/27 07:55:07;;;;;;;6.25;5.72;;;;;;;20.59;51.03;101576.06;6153387;23;20012;-81
2021/06/27 07:57:32;;;;;;;6.55;5.93;;;;;;;20.55;50.76;101582.94;6127249;23;20338;-81
2021/06/27 07:59:57;;;;;;;6.05;5.55;;;;;;;20.55;50.97;101567.38;6126703;23;20045;-81
2021/06/27 08:02:23;;;;;;;6.53;5.70;;;;;;;20.54;51.12;101565.69;6153293;23;20036;-81
2021/06/27 08:04:48;;;;;;;5.80;5.30;;;;;;;20.74;50.98;101560.56;6152873;23;20005;-81
2021/06/27 08:07:13;;;;;;;6.30;5.70;;;;;;;20.75;50.19;101561.44;6153159;23;20088;-81
2021/06/27 08:09:39;;;;;;;6.75;5.97;;;;;;;20.77;50.06;101552.00;6152454;23;20006;-81
2021/06/27 08:12:05;;;;;;;6.13;5.53;;;;;;;20.98;50.18;101555.97;6152605;23;20009;-81
2021/06/27 08:14:30;;;;;;;6.93;6.32;;;;;;;20.78;50.06;101550.13;6126419;23;20044;-81
2021/06/27 08:16:55;;;;;;;6.45;5.93;;;;;;;20.87;50.27;101559.97;6152660;23;20010;-81
2021/06/27 08:19:21;;;;;;;6.65;5.88;;;;;;;20.99;50.32;101558.50;6152866;23;20473;-81
2021/06/27 08:21:46;;;;;;;6.55;5.93;;;;;;;21.12;49.94;101552.41;6153078;23;20080;-81
2021/06/27 08:24:12;;;;;;;7.38;6.63;;;;;;;20.85;49.04;101545.66;6152172;23;20006;-81
2021/06/27 08:26:37;;;;;;;6.10;5.60;;;;;;;20.74;49.81;101548.81;6126993;23;20029;-81
2021/06/27 08:29:02;;;;;;;7.00;6.40;;;;;;;20.76;50.09;101546.75;6152376;23;20064;-81
2021/06/27 08:31:28;;;;;;;6.38;5.88;;;;;;;20.84;49.78;101543.94;6152828;23;20039;-81
2021/06/27 08:33:53;;;;;;;5.95;5.38;;;;;;;21.02;49.59;101538.97;6152363;23;20010;-81
2021/06/27 08:36:19;;;;;;;6.72;5.10;;;;;;;21.04;49.60;101542.38;6152915;23;20005;-81
2021/06/27 08:38:44;;;;;;;6.15;5.63;;;;;;;21.17;48.53;101539.00;6152372;23;20002;-81
2021/06/27 08:41:13;;;;;;;5.75;5.13;;;;;;;21.18;49.25;101545.31;6126139;23;20040;-81
2021/06/27 08:43:41;;;;;;;5.03;4.63;;;;;;;21.04;48.84;101550.59;6153481;23;20005;-81
2021/06/27 08:46:10;;;;;;;5.82;5.32;;;;;;;20.97;48.95;101548.78;6127586;23;20078;-81
2021/06/27 08:48:38;;;;;;;4.93;4.53;;;;;;;21.09;49.90;101548.16;6153283;23;20010;-81
2021/06/27 08:51:04;;;;;;;5.18;4.78;;;;;;;21.33;49.97;101555.28;6153659;23;20334;-81
2021/06/27 08:53:33;;;;;;;5.45;5.03;;;;;;;21.37;48.61;101558.53;6127014;23;20768;-81
2021/06/27 08:56:08;;;;;;;4.85;4.45;;;;;;;21.30;48.68;101549.31;6152458;23;20500;-81
2021/06/27 08:58:36;;;;;;;5.70;5.20;;;;;;;21.17;47.60;101541.75;6154679;23;20005;-81
2021/06/27 09:01:04;;;;;;;5.13;4.57;;;;;;;21.25;48.50;101546.31;6154287;23;20072;-81
2021/06/27 09:03:29;;;;;;;5.65;5.13;;;;;;;21.24;48.40;101542.72;6152691;23;20013;-81
2021/06/27 09:05:55;;;;;;;6.05;5.50;;;;;;;21.45;48.57;101542.00;6152808;23;20012;-81
2021/06/27 09:08:20;;;;;;;5.70;5.30;;;;;;;21.43;47.94;101538.63;6152581;23;20009;-81
2021/06/27 09:10:46;;;;;;;5.72;5.07;;;;;;;21.13;48.35;101534.13;6125933;23;20005;-81
2021/06/27 09:13:12;;;;;;;4.78;4.32;;;;;;;20.90;49.72;101534.97;6152186;23;20005;-81
2021/06/27 09:15:47;;;;;;;5.07;4.22;;;;;;;20.94;48.62;101533.59;6152629;23;20005;-81
2021/06/27 09:18:15;;;;;;;4.65;4.35;;;;;;;20.76;48.62;101533.91;6126168;23;20108;-81
2021/06/27 09:20:45;;;;;;;4.78;4.30;;;;;;;20.95;48.73;101535.28;6125931;23;20010;-81
2021/06/27 09:23:13;;;;;;;4.90;4.50;;;;;;;20.70;49.16;101531.06;6126546;23;20021;-81
2021/06/27 09:25:40;;;;;;;4.10;3.80;;;;;;;20.68;49.28;101524.94;6125677;23;20555;-81
2021/06/27 09:28:12;;;;;;;4.82;4.43;;;;;;;20.77;49.59;101530.16;6125992;23;20401;-81
2021/06/27 09:30:49;;;;;;;6.07;5.13;;;;;;;20.94;49.15;101521.81;6152532;23;20010;-81
2021/06/27 09:33:21;;;;;;;5.53;4.57;;;;;;;21.04;49.37;101514.19;6125877;23;20013;-81
2021/06/27 09:35:57;;;;;;;4.60;4.20;;;;;;;21.14;48.61;101512.03;6152522;23;20009;-80
2021/06/27 09:38:30;;;;;;;5.45;5.00;;;;;;;21.14;49.54;101512.03;6126422;23;20041;-80
2021/06/27 09:41:22;;;;;;;4.22;3.92;;;;;;;20.88;49.04;101513.31;6153215;23;20006;-80
2021/06/27 09:43:52;;;;;;;4.10;3.78;;;;;;;20.65;48.87;101515.22;6152807;23;20012;-80
2021/06/27 09:46:28;;;;;;;4.05;3.75;;;;;;;20.62;49.31;101508.22;6153616;23;20008;-80
2021/06/27 09:49:03;;;;;;;4.15;3.75;;;;;;;20.74;49.24;101510.53;6153136;23;20476;-80
2021/06/27 09:51:31;;;;;;;5.22;4.72;;;;;;;20.77;49.29;101508.28;6127290;23;20017;-80
2021/06/27 09:53:58;;;;;;;4.72;4.32;;;;;;;20.92;49.22;101505.59;6155927;23;20005;-80
2021/06/27 09:56:24;;;;;;;4.20;3.80;;;;;;;20.93;49.31;101507.28;6155130;23;20083;-80
2021/06/27 09:58:57;;;;;;;4.10;3.80;;;;;;;20.81;49.07;101497.81;6156144;23;20346;-80
2021/06/27 10:01:25;;;;;;;3.92;3.58;;;;;;;20.85;49.40;101496.44;6155676;23;20444;-80
2021/06/27 10:03:53;;;;;;;3.42;3.13;;;;;;;20.82;49.98;101497.66;6129615;23;20013;-80
2021/06/27 10:06:19;;;;;;;4.32;3.95;;;;;;;20.89;49.62;101500.47;6155691;23;20017;-80
2021/06/27 10:08:44;;;;;;;4.18;3.80;;;;;;;20.82;49.61;101492.19;6155320;23;20033;-82
2021/06/27 10:11:17;;;;;;;4.43;4.00;;;;;;;20.73;49.69;101490.56;6153724;23;20474;-80
2021/06/27 10:13:46;;;;;;;3.85;3.55;;;;;;;20.81;48.85;101486.88;6155665;23;20323;-81
2021/06/27 10:16:16;;;;;;;4.03;3.63;;;;;;;20.81;49.66;101473.22;6156948;23;20016;-81
2021/06/27 10:18:42;;;;;;;3.47;3.25;;;;;;;20.74;50.06;101480.47;6127650;23;20084;-81
2021/06/27 10:21:09;;;;;;;3.95;3.25;;;;;;;20.82;50.16;101475.78;6127911;23;20002;-81
2021/06/27 10:23:35;;;;;;;3.40;3.10;;;;;;;20.76;49.70;101471.03;6154510;23;20009;-81
2021/06/27 10:26:01;;;;;;;3.08;2.80;;;;;;;20.92;49.25;101475.50;6153665;23;20172;-80
2021/06/27 10:28:27;;;;;;;3.33;3.03;;;;;;;20.82;49.33;101469.47;6126563;23;20021;-80
2021/06/27 10:30:52;;;;;;;4.25;3.15;;;;;;;20.81;49.33;101465.84;6154078;23;20062;-81
2021/06/27 10:33:18;;;;;;;4.95;4.55;;;;;;;20.75;50.22;101476.69;6153358;23;20009;-81
2021/06/27 10:35:49;;;;;;;4.70;3.63;;;;;;;20.87;50.48;101472.47;6153992;23;20445;-80
2021/06/27 10:38:18;;;;;;;5.10;3.23;;;;;;;20.96;50.76;101471.34;6154003;23;20059;-80
2021/06/27 10:40:52;;;;;;;3.90;3.55;;;;;;;20.96;50.46;101465.03;6153841;23;20239;-81
2021/06/27 10:43:17;;;;;;;3.70;3.38;;;;;;;21.00;50.84;101466.38;6153410;23;20472;-81
2021/06/27 10:45:45;;;;;;;4.30;3.90;;;;;;;21.07;50.90;101461.84;6127464;23;20005;-81
2021/06/27 10:48:46;;;;;;;4.78;3.70;;;;;;;20.85;50.94;101463.63;6127318;23;20013;-81
2021/06/27 10:51:13;;;;;;;4.03;3.28;;;;;;;20.83;50.79;101466.53;6005770;23;20348;-81
2021/06/27 10:54:23;;;;;;;4.38;3.33;;;;;;;20.92;51.25;101466.47;6095784;23;20009;-80
2021/06/27 10:56:59;;;;;;;5.97;4.43;;;;;;;20.90;50.50;101463.88;6147114;23;20048;-81
2021/06/27 10:59:48;;;;;;;3.60;3.03;;;;;;;21.10;50.33;101465.06;6127214;23;20005;-80
2021/06/27 11:02:31;;;;;;;3.60;3.30;;;;;;;21.17;50.01;101462.41;6154231;23;20080;-81
2021/06/27 11:05:28;;;;;;;5.45;3.40;;;;;;;21.17;49.38;101456.94;6127568;23;20005;-81
2021/06/27 11:07:55;;;;;;;6.47;3.70;;;;;;;21.16;49.58;101460.72;6154268;23;20418;-81
2021/06/27 11:10:20;;;;;;;4.28;3.40;;;;;;;21.10;49.18;101456.84;6153988;23;20020;-81
2021/06/27 11:12:55;;;;;;;4.50;3.60;;;;;;;21.15;49.45;101456.31;6153907;23;20438;-81
2021/06/27 11:15:20;;;;;;;4.10;3.80;;;;;;;21.25;49.94;101456.03;6153365;23;20081;-81